createdAt,value
2024-02-19T00:00:26.936Z,68.81
2024-02-19T00:01:50.475Z,68.89
2024-02-19T00:03:13.600Z,68.31
2024-02-19T00:04:38.654Z,68.12
2024-02-19T00:06:01.337Z,68.63
2024-02-19T00:07:24.018Z,68.84
2024-02-19T00:08:47.150Z,68.91
2024-02-19T00:10:10.489Z,69.05
2024-02-19T00:11:33.561Z,68.97
2024-02-19T00:12:57.054Z,68.80
2024-02-19T00:14:20.382Z,68.96
2024-02-19T00:15:44.030Z,69.21
2024-02-19T00:17:06.550Z,69.09
2024-02-19T00:18:28.860Z,69.19
2024-02-19T00:19:50.053Z,69.39
2024-02-19T00:21:21.445Z,69.39
2024-02-19T00:22:42.523Z,69.66
2024-02-19T00:24:05.701Z,69.75
2024-02-19T00:25:27.996Z,70.02
2024-02-19T00:26:52.984Z,69.93
2024-02-19T00:28:15.813Z,70.15
2024-02-19T00:29:39.314Z,70.31
2024-02-19T00:31:01.337Z,69.99
2024-02-19T00:32:23.273Z,69.62
2024-02-19T00:33:46.573Z,69.72
2024-02-19T00:35:08.943Z,70.21
2024-02-19T00:36:30.559Z,69.88
2024-02-19T00:37:55.153Z,69.72
2024-02-19T00:39:20.609Z,69.49
2024-02-19T00:40:43.470Z,69.82
2024-02-19T00:42:04.976Z,69.38
2024-02-19T00:43:28.142Z,69.20
2024-02-19T00:44:50.880Z,70.03
2024-02-19T00:46:13.172Z,70.02
2024-02-19T00:47:35.128Z,69.79
2024-02-19T00:48:57.557Z,69.51
2024-02-19T00:50:20.695Z,70.36
2024-02-19T00:51:44.450Z,70.48
2024-02-19T00:53:06.850Z,70.51
2024-02-19T00:54:29.437Z,70.22
2024-02-19T00:55:59.214Z,70.56
2024-02-19T00:57:29.085Z,70.50
2024-02-19T00:58:52.288Z,70.66
2024-02-19T01:00:15.464Z,71.10
2024-02-19T01:01:36.927Z,71.07
2024-02-19T01:03:00.170Z,71.33
2024-02-19T01:04:23.076Z,71.42
2024-02-19T01:05:45.189Z,71.35
2024-02-19T01:07:07.962Z,71.05
2024-02-19T01:08:59.702Z,72.16
2024-02-19T01:10:30.141Z,71.92
2024-02-19T01:12:56.989Z,71.76
2024-02-19T01:15:09.381Z,72.25
2024-02-19T01:16:50.180Z,71.74
2024-02-19T01:18:16.510Z,71.67
2024-02-19T01:23:10.561Z,72.91
2024-02-19T01:24:33.210Z,72.82
2024-02-19T01:25:56.663Z,72.51
2024-02-19T01:27:19.080Z,72.12
2024-02-19T01:28:42.309Z,72.35
2024-02-19T01:30:05.848Z,72.83
2024-02-19T01:31:38.706Z,72.70
2024-02-19T01:33:12.452Z,72.54
2024-02-19T01:34:34.717Z,73.03
2024-02-19T01:35:57.831Z,73.00
2024-02-19T01:37:29.605Z,72.96
2024-02-19T01:38:56.313Z,72.88
2024-02-19T01:40:20.945Z,73.16
2024-02-19T01:41:43.914Z,72.86
2024-02-19T01:43:15.174Z,73.01
2024-02-19T01:44:41.156Z,73.25
2024-02-19T01:46:04.744Z,73.07
2024-02-19T01:47:27.846Z,73.05
2024-02-19T01:48:50.524Z,72.27
2024-02-19T01:50:28.235Z,72.14
2024-02-19T01:51:57.515Z,72.69
2024-02-19T01:53:35.024Z,72.48
2024-02-19T01:55:35.552Z,72.18
2024-02-19T01:56:58.984Z,72.58
2024-02-19T01:58:21.184Z,73.10
2024-02-19T01:59:54.016Z,72.90
2024-02-19T02:01:21.233Z,72.83
2024-02-19T02:02:43.270Z,72.57
2024-02-19T02:04:08.354Z,73.17
2024-02-19T02:05:31.552Z,73.37
2024-02-19T02:06:55.014Z,72.73
2024-02-19T02:08:18.310Z,73.12
2024-02-19T02:09:41.750Z,73.27
2024-02-19T02:11:05.844Z,73.19
2024-02-19T02:12:29.145Z,72.94
2024-02-19T02:15:55.503Z,72.45
2024-02-19T02:17:16.640Z,72.89
2024-02-19T02:18:40.044Z,72.97
2024-02-19T02:20:05.766Z,73.12
2024-02-19T02:21:52.228Z,73.25
2024-02-19T02:24:07.382Z,73.01
2024-02-19T02:26:45.641Z,73.70
2024-02-19T02:28:23.921Z,74.01
2024-02-19T02:29:49.416Z,73.35
2024-02-19T02:31:18.153Z,73.71
2024-02-19T02:32:41.262Z,73.33
2024-02-19T02:34:38.499Z,73.42
2024-02-19T02:36:11.478Z,73.59
2024-02-19T02:37:52.751Z,73.87
2024-02-19T02:39:18.007Z,74.02
2024-02-19T02:41:22.279Z,74.02
2024-02-19T02:42:45.769Z,75.44
2024-02-19T02:44:09.429Z,74.87
2024-02-19T02:46:29.970Z,75.04
2024-02-19T02:47:50.511Z,75.12
2024-02-19T02:49:13.260Z,74.53
2024-02-19T02:50:38.175Z,74.80
2024-02-19T02:52:12.101Z,74.57
2024-02-19T02:53:41.152Z,74.69
2024-02-19T02:55:17.495Z,74.83
2024-02-19T02:57:03.297Z,74.87
2024-02-19T02:58:28.231Z,74.54
2024-02-19T02:59:55.571Z,74.87
2024-02-19T03:02:17.795Z,75.24
2024-02-19T03:03:40.562Z,75.29
2024-02-19T03:05:05.534Z,75.91
2024-02-19T03:06:27.483Z,76.14
2024-02-19T03:08:04.273Z,75.90
2024-02-19T03:09:33.114Z,76.14
2024-02-19T03:11:13.814Z,75.83
2024-02-19T03:12:46.222Z,76.30
2024-02-19T03:14:12.197Z,76.00
2024-02-19T03:15:34.770Z,76.18
2024-02-19T03:17:12.419Z,75.45
2024-02-19T03:18:44.994Z,75.44
2024-02-19T03:20:18.635Z,75.10
2024-02-19T03:22:40.763Z,74.68
2024-02-19T03:24:02.221Z,74.96
2024-02-19T03:26:01.745Z,74.66
2024-02-19T03:30:42.278Z,74.39
2024-02-19T03:32:06.638Z,73.86
2024-02-19T03:36:14.585Z,73.67
2024-02-19T03:37:48.699Z,73.79
2024-02-19T03:39:46.460Z,73.80
2024-02-19T03:41:16.495Z,73.95
2024-02-19T03:43:01.376Z,73.91
2024-02-19T03:46:58.167Z,73.85
2024-02-19T03:48:46.497Z,74.33
2024-02-19T03:50:34.352Z,74.12
2024-02-19T03:52:00.778Z,74.01
2024-02-19T03:53:45.946Z,74.21
2024-02-19T03:55:16.320Z,74.20
2024-02-19T03:57:12.272Z,74.31
2024-02-19T03:58:39.850Z,74.24
2024-02-19T04:00:06.431Z,74.62
2024-02-19T04:01:35.525Z,74.86
2024-02-19T04:03:01.926Z,74.26
2024-02-19T04:04:23.833Z,73.93
2024-02-19T04:05:46.380Z,74.19
2024-02-19T04:07:08.577Z,74.12
2024-02-19T04:08:46.703Z,73.95
2024-02-19T04:10:19.620Z,74.43
2024-02-19T04:11:41.891Z,74.24
2024-02-19T04:13:47.369Z,74.55
2024-02-19T04:15:11.330Z,74.31
2024-02-19T04:16:37.935Z,73.86
2024-02-19T04:18:01.878Z,74.49
2024-02-19T04:19:27.730Z,74.96
2024-02-19T04:20:50.358Z,74.54
2024-02-19T04:22:12.973Z,74.47
2024-02-19T04:23:34.898Z,74.74
2024-02-19T04:24:57.229Z,75.00
2024-02-19T04:26:27.198Z,75.48
2024-02-19T04:27:51.372Z,75.00
2024-02-19T04:29:14.084Z,74.97
2024-02-19T04:32:22.672Z,75.98
2024-02-19T04:34:12.345Z,75.56
2024-02-19T04:35:51.008Z,75.58
2024-02-19T04:37:35.674Z,74.94
2024-02-19T04:38:57.084Z,75.59
2024-02-19T04:40:35.947Z,75.37
2024-02-19T04:42:41.222Z,75.84
2024-02-19T04:47:18.536Z,76.03
2024-02-19T04:49:04.703Z,76.13
2024-02-19T04:50:56.174Z,75.73
2024-02-19T04:52:24.095Z,75.65
2024-02-19T04:53:49.500Z,75.71
2024-02-19T04:55:14.967Z,75.59
2024-02-19T04:56:46.441Z,75.49
2024-02-19T04:58:10.988Z,75.94
2024-02-19T05:00:05.563Z,75.67
2024-02-19T05:01:59.343Z,75.48
2024-02-19T05:03:33.789Z,75.32
2024-02-19T05:05:02.475Z,74.78
2024-02-19T05:06:36.307Z,74.84
2024-02-19T05:08:38.488Z,75.34
2024-02-19T05:11:03.470Z,74.93
2024-02-19T05:12:26.027Z,75.24
2024-02-19T05:13:49.260Z,75.34
2024-02-19T05:15:26.102Z,75.30
2024-02-19T05:17:26.704Z,75.02
2024-02-19T05:18:49.201Z,75.14
2024-02-19T05:20:17.313Z,74.51
2024-02-19T05:22:02.660Z,75.13
2024-02-19T05:23:31.394Z,74.93
2024-02-19T05:25:00.776Z,74.54
2024-02-19T05:26:36.297Z,74.87
2024-02-19T05:28:24.828Z,74.96
2024-02-19T05:30:22.769Z,74.89
2024-02-19T05:31:57.955Z,74.95
2024-02-19T05:33:43.536Z,74.93
2024-02-19T05:35:47.505Z,74.55
2024-02-19T05:37:36.244Z,74.42
2024-02-19T05:39:19.392Z,73.81
2024-02-19T05:40:42.184Z,73.83
2024-02-19T05:42:04.959Z,73.14
2024-02-19T05:44:16.467Z,73.07
2024-02-19T05:46:11.305Z,72.51
2024-02-19T05:47:48.681Z,72.66
2024-02-19T05:54:32.515Z,71.36
2024-02-19T05:55:54.510Z,71.68
2024-02-19T05:57:20.421Z,71.07
2024-02-19T06:00:54.898Z,70.52
2024-02-19T06:02:23.886Z,70.34
2024-02-19T06:03:46.655Z,70.18
2024-02-19T06:05:09.962Z,70.96
2024-02-19T06:06:34.870Z,70.32
2024-02-19T06:07:58.677Z,70.14
2024-02-19T06:09:23.159Z,70.13
2024-02-19T06:10:59.597Z,70.24
2024-02-19T06:12:22.977Z,70.00
2024-02-19T06:13:50.254Z,70.35
2024-02-19T06:15:13.207Z,71.06
2024-02-19T06:16:40.893Z,71.14
2024-02-19T06:18:41.492Z,70.52
2024-02-19T06:20:06.039Z,70.46
2024-02-19T06:22:14.665Z,70.05
2024-02-19T06:28:11.521Z,69.99
2024-02-19T06:29:57.744Z,69.62
2024-02-19T06:31:19.809Z,70.43
2024-02-19T06:33:19.812Z,70.46
2024-02-19T06:34:45.139Z,69.59
2024-02-19T06:36:14.404Z,70.00
2024-02-19T06:38:38.851Z,70.20
2024-02-19T06:40:09.081Z,69.55
2024-02-19T06:41:33.523Z,70.00
2024-02-19T06:42:56.923Z,70.20
2024-02-19T06:44:24.049Z,70.20
2024-02-19T06:45:47.636Z,70.49
2024-02-19T06:47:10.852Z,70.06
2024-02-19T06:48:32.780Z,69.77
2024-02-19T06:50:38.291Z,69.80
2024-02-19T06:52:09.741Z,70.50
2024-02-19T06:53:34.086Z,69.97
2024-02-19T06:54:56.905Z,70.09
2024-02-19T06:56:19.886Z,69.81
2024-02-19T06:57:42.960Z,70.26
2024-02-19T06:59:05.507Z,70.20
2024-02-19T07:00:29.109Z,69.81
2024-02-19T07:01:52.182Z,69.25
2024-02-19T07:03:15.357Z,69.69
2024-02-19T07:04:39.113Z,69.29
2024-02-19T07:06:02.601Z,69.62
2024-02-19T07:07:26.285Z,69.72
2024-02-19T07:08:48.404Z,69.41
2024-02-19T07:10:12.182Z,69.21
2024-02-19T07:11:39.414Z,68.97
2024-02-19T07:13:00.496Z,68.50
2024-02-19T07:14:22.405Z,68.19
2024-02-19T07:15:46.100Z,68.36
2024-02-19T07:17:08.922Z,68.40
2024-02-19T07:18:33.239Z,67.29
2024-02-19T07:19:56.157Z,67.00
2024-02-19T07:21:21.823Z,67.44
2024-02-19T07:22:47.301Z,67.32
2024-02-19T07:24:10.543Z,67.29
2024-02-19T07:25:33.553Z,67.01
2024-02-19T07:26:56.132Z,67.32
2024-02-19T07:28:21.086Z,66.99
2024-02-19T07:29:59.574Z,66.74
2024-02-19T07:31:49.140Z,66.59
2024-02-19T07:33:28.295Z,66.44
2024-02-19T07:35:14.201Z,66.35
2024-02-19T07:36:56.499Z,67.27
2024-02-19T07:38:21.752Z,66.93
2024-02-19T07:39:50.901Z,67.18
2024-02-19T07:41:23.496Z,66.99
2024-02-19T07:42:47.799Z,66.83
2024-02-19T07:44:29.605Z,66.91
2024-02-19T07:45:54.940Z,66.95
2024-02-19T07:47:25.073Z,67.26
2024-02-19T07:49:09.728Z,66.84
2024-02-19T07:50:46.795Z,67.25
2024-02-19T07:52:17.955Z,68.01
2024-02-19T07:54:07.596Z,67.29
2024-02-19T07:56:20.333Z,67.31
2024-02-19T07:57:56.536Z,66.78
2024-02-19T07:59:47.658Z,67.63
2024-02-19T08:01:34.155Z,66.44
2024-02-19T08:03:40.822Z,66.77
2024-02-19T08:05:55.950Z,66.33
2024-02-19T08:07:21.810Z,66.29
2024-02-19T08:08:56.792Z,65.89
2024-02-19T08:15:15.033Z,65.77
2024-02-19T08:16:47.550Z,65.56
2024-02-19T08:19:26.896Z,64.99
2024-02-19T08:21:07.945Z,64.28
2024-02-19T08:25:00.961Z,63.79
2024-02-19T08:26:51.592Z,63.28
2024-02-19T08:28:41.602Z,63.46
2024-02-19T08:30:22.504Z,62.55
2024-02-19T08:31:54.695Z,62.98
2024-02-19T08:33:47.606Z,62.75
2024-02-19T08:35:11.246Z,62.50
2024-02-19T08:36:36.209Z,62.44
2024-02-19T08:38:01.486Z,61.94
2024-02-19T08:39:24.213Z,62.03
2024-02-19T08:40:50.729Z,61.62
2024-02-19T08:43:00.650Z,61.28
2024-02-19T08:44:29.241Z,60.69
2024-02-19T08:46:00.582Z,60.49
2024-02-19T08:47:25.074Z,59.97
2024-02-19T08:48:48.671Z,60.13
2024-02-19T08:50:53.935Z,59.29
2024-02-19T08:52:16.518Z,59.05
2024-02-19T08:53:39.820Z,59.44
2024-02-19T08:55:02.386Z,59.74
2024-02-19T08:56:25.368Z,59.02
2024-02-19T08:57:48.022Z,59.38
2024-02-19T08:59:13.853Z,59.40
2024-02-19T09:00:38.151Z,59.97
2024-02-19T09:02:00.758Z,59.66
2024-02-19T09:03:22.145Z,59.19
2024-02-19T09:04:49.548Z,59.46
2024-02-19T09:06:12.408Z,59.96
2024-02-19T09:07:36.792Z,60.39
2024-02-19T09:09:01.565Z,60.23
2024-02-19T09:10:24.428Z,59.31
2024-02-19T09:11:47.925Z,59.22
2024-02-19T09:13:11.881Z,59.48
2024-02-19T09:14:34.199Z,58.53
2024-02-19T09:15:57.175Z,59.33
2024-02-19T09:17:20.440Z,59.13
2024-02-19T09:18:49.709Z,58.86
2024-02-19T09:20:13.037Z,58.72
2024-02-19T09:21:35.254Z,57.65
2024-02-19T09:22:58.025Z,57.71
2024-02-19T09:24:20.943Z,58.36
2024-02-19T09:25:47.747Z,57.94
2024-02-19T09:27:09.496Z,58.55
2024-02-19T09:28:33.068Z,58.70
2024-02-19T09:31:07.915Z,57.98
2024-02-19T09:32:34.283Z,57.52
2024-02-19T09:33:59.153Z,57.91
2024-02-19T09:36:52.865Z,57.60
2024-02-19T09:38:23.856Z,56.75
2024-02-19T09:40:17.630Z,56.19
2024-02-19T09:42:37.073Z,56.40
2024-02-19T09:44:02.587Z,57.03
2024-02-19T09:45:27.736Z,56.46
2024-02-19T09:46:53.274Z,56.87
2024-02-19T09:48:21.429Z,54.67
2024-02-19T09:49:44.616Z,55.53
2024-02-19T09:51:37.184Z,55.93
2024-02-19T09:53:12.902Z,55.52
2024-02-19T09:54:35.729Z,54.34
2024-02-19T09:55:59.990Z,54.79
2024-02-19T09:57:24.750Z,55.49
2024-02-19T09:58:48.810Z,54.59
2024-02-19T10:00:13.097Z,54.17
2024-02-19T10:01:35.784Z,54.47
2024-02-19T10:02:59.333Z,53.28
2024-02-19T10:04:23.913Z,53.65
2024-02-19T10:05:49.098Z,53.58
2024-02-19T10:07:14.849Z,54.18
2024-02-19T10:08:38.225Z,53.08
2024-02-19T10:10:05.551Z,53.12
2024-02-19T10:11:35.340Z,51.80
2024-02-19T10:12:57.994Z,53.78
2024-02-19T10:14:20.044Z,54.03
2024-02-19T10:15:41.809Z,52.75
2024-02-19T10:17:05.108Z,52.96
2024-02-19T10:18:28.335Z,53.71
2024-02-19T10:20:07.558Z,52.94
2024-02-19T10:21:31.899Z,54.11
2024-02-19T10:22:55.229Z,53.12
2024-02-19T10:24:20.990Z,53.05
2024-02-19T10:25:43.739Z,53.00
2024-02-19T10:27:06.916Z,53.06
2024-02-19T10:28:33.556Z,53.70
2024-02-19T10:29:56.175Z,54.20
2024-02-19T10:31:18.322Z,53.28
2024-02-19T10:32:43.215Z,53.54
2024-02-19T10:34:06.765Z,53.60
2024-02-19T10:35:30.916Z,53.56
2024-02-19T10:36:53.061Z,52.70
2024-02-19T10:38:18.318Z,52.08
2024-02-19T10:39:41.497Z,52.07
2024-02-19T10:41:02.296Z,51.77
2024-02-19T10:42:25.532Z,52.21
2024-02-19T10:43:47.811Z,51.39
2024-02-19T10:45:12.922Z,52.33
2024-02-19T10:46:36.681Z,51.51
2024-02-19T10:48:01.868Z,52.32
2024-02-19T10:49:26.334Z,51.81
2024-02-19T10:50:52.341Z,53.11
2024-02-19T10:52:14.065Z,53.29
2024-02-19T10:53:37.446Z,53.16
2024-02-19T10:55:09.683Z,53.51
2024-02-19T10:56:40.469Z,53.94
2024-02-19T10:58:05.325Z,53.92
2024-02-19T10:59:31.335Z,54.44
2024-02-19T11:00:56.375Z,53.33
2024-02-19T11:02:22.859Z,53.33
2024-02-19T11:03:48.006Z,53.46
2024-02-19T11:05:13.609Z,53.73
2024-02-19T11:06:42.115Z,53.96
2024-02-19T11:08:04.791Z,54.32
2024-02-19T11:09:37.503Z,53.78
2024-02-19T11:11:00.686Z,53.82
2024-02-19T11:12:24.422Z,53.95
2024-02-19T11:13:49.535Z,54.08
2024-02-19T11:15:19.156Z,53.63
2024-02-19T11:17:01.873Z,53.74
2024-02-19T11:18:33.661Z,53.34
2024-02-19T11:19:56.533Z,53.38
2024-02-19T11:21:22.139Z,52.87
2024-02-19T11:22:45.155Z,53.93
2024-02-19T11:24:12.572Z,52.68
2024-02-19T11:25:46.535Z,53.09
2024-02-19T11:27:10.588Z,53.30
2024-02-19T11:28:38.554Z,52.95
2024-02-19T11:30:03.036Z,53.01
2024-02-19T11:31:36.974Z,53.44
2024-02-19T11:33:14.279Z,52.41
2024-02-19T11:34:37.593Z,52.24
2024-02-19T11:36:04.078Z,52.42
2024-02-19T11:37:29.051Z,52.49
2024-02-19T11:38:52.439Z,52.88
2024-02-19T11:40:19.233Z,52.66
2024-02-19T11:42:05.927Z,52.67
2024-02-19T11:43:31.459Z,53.77
2024-02-19T11:44:58.046Z,52.90
2024-02-19T11:46:22.673Z,52.91
2024-02-19T11:47:46.046Z,53.79
2024-02-19T11:49:10.342Z,53.46
2024-02-19T11:50:33.488Z,53.64
2024-02-19T11:52:04.390Z,53.00
2024-02-19T11:53:31.664Z,53.93
2024-02-19T11:55:03.129Z,53.53
2024-02-19T11:56:25.680Z,54.09
2024-02-19T11:57:51.313Z,54.02
2024-02-19T11:59:16.249Z,53.67
2024-02-19T12:00:41.283Z,53.87
2024-02-19T12:02:07.411Z,54.00
2024-02-19T12:03:31.744Z,53.15
2024-02-19T12:04:55.304Z,53.22
2024-02-19T12:06:18.697Z,54.04
2024-02-19T12:07:41.244Z,54.13
2024-02-19T12:09:04.108Z,54.15
2024-02-19T12:10:29.723Z,53.96
2024-02-19T12:11:52.047Z,53.59
2024-02-19T12:13:15.597Z,54.56
2024-02-19T12:14:39.467Z,53.98
2024-02-19T12:16:03.582Z,53.39
2024-02-19T12:17:28.155Z,54.28
2024-02-19T12:18:53.196Z,53.67
2024-02-19T12:20:16.119Z,54.10
2024-02-19T12:21:38.147Z,53.43
2024-02-19T12:23:01.575Z,54.26
2024-02-19T12:24:26.046Z,54.57
2024-02-19T12:25:50.420Z,53.73
2024-02-19T12:27:12.888Z,54.33
2024-02-19T12:28:35.183Z,53.21
2024-02-19T12:29:58.458Z,54.21
2024-02-19T12:31:21.994Z,53.73
2024-02-19T12:32:48.065Z,54.16
2024-02-19T12:34:10.743Z,54.64
2024-02-19T12:35:34.156Z,54.60
2024-02-19T12:36:56.594Z,54.66
2024-02-19T12:38:18.604Z,54.18
2024-02-19T12:39:51.086Z,54.36
2024-02-19T12:41:19.281Z,54.61
2024-02-19T12:42:43.337Z,53.88
2024-02-19T12:44:05.945Z,53.90
2024-02-19T12:45:28.844Z,54.38
2024-02-19T12:46:52.805Z,54.64
2024-02-19T12:48:16.635Z,54.28
2024-02-19T12:49:40.814Z,55.36
2024-02-19T12:51:08.301Z,54.20
2024-02-19T12:52:31.739Z,54.84
2024-02-19T12:53:56.541Z,53.79
2024-02-19T12:55:19.890Z,54.07
2024-02-19T12:56:44.190Z,54.32
2024-02-19T12:58:07.109Z,53.94
2024-02-19T12:59:31.020Z,55.35
2024-02-19T13:00:54.505Z,54.90
2024-02-19T13:02:18.439Z,55.52
2024-02-19T13:03:42.416Z,54.35
2024-02-19T13:05:07.857Z,55.79
2024-02-19T13:06:30.450Z,54.58
2024-02-19T13:07:56.335Z,54.66
2024-02-19T13:09:20.620Z,55.21
2024-02-19T13:10:46.215Z,56.21
2024-02-19T13:12:11.377Z,55.88
2024-02-19T13:13:34.770Z,56.14
2024-02-19T13:15:04.224Z,55.36
2024-02-19T13:16:58.427Z,55.53
2024-02-19T13:18:42.168Z,55.70
2024-02-19T13:22:42.776Z,56.88
2024-02-19T13:24:19.681Z,56.89
2024-02-19T13:25:46.224Z,56.44
2024-02-19T13:27:17.412Z,57.30
2024-02-19T13:28:39.545Z,57.21
2024-02-19T13:30:03.272Z,57.10
2024-02-19T13:31:38.373Z,57.35
2024-02-19T13:33:09.507Z,57.79
2024-02-19T13:34:35.265Z,58.30
2024-02-19T13:36:06.733Z,57.52
2024-02-19T13:37:30.535Z,57.48
2024-02-19T13:38:54.379Z,57.89
2024-02-19T13:40:19.197Z,58.25
2024-02-19T13:41:44.354Z,57.83
2024-02-19T13:43:06.974Z,58.45
2024-02-19T13:44:31.547Z,57.63
2024-02-19T13:46:01.686Z,58.01
2024-02-19T13:47:25.084Z,58.84
2024-02-19T13:49:02.422Z,58.67
2024-02-19T13:50:25.765Z,57.92
2024-02-19T13:51:48.685Z,58.17
2024-02-19T13:53:16.990Z,58.83
2024-02-19T13:54:40.554Z,59.17
2024-02-19T13:56:05.574Z,58.18
2024-02-19T13:57:27.078Z,58.35
2024-02-19T13:58:50.837Z,58.50
2024-02-19T14:00:14.316Z,58.28
2024-02-19T14:01:40.363Z,58.04
2024-02-19T14:03:04.959Z,58.17
2024-02-19T14:04:27.605Z,58.75
2024-02-19T14:05:51.878Z,58.41
2024-02-19T14:07:16.435Z,58.82
2024-02-19T14:08:41.417Z,58.54
2024-02-19T14:10:07.220Z,58.95
2024-02-19T14:11:41.277Z,58.97
2024-02-19T14:13:04.985Z,57.93
2024-02-19T14:14:28.317Z,58.29
2024-02-19T14:15:50.109Z,59.11
2024-02-19T14:17:14.801Z,59.67
2024-02-19T14:18:38.322Z,59.24
2024-02-19T14:20:02.132Z,59.08
2024-02-19T14:21:49.138Z,59.39
2024-02-19T14:23:13.851Z,59.01
2024-02-19T14:24:43.013Z,58.99
2024-02-19T14:26:25.674Z,59.38
2024-02-19T14:27:51.015Z,58.55
2024-02-19T14:29:20.783Z,59.68
2024-02-19T14:30:44.220Z,59.03
2024-02-19T14:32:22.086Z,59.43
2024-02-19T14:33:46.900Z,59.38
2024-02-19T14:35:12.548Z,58.38
2024-02-19T14:36:40.793Z,59.20
2024-02-19T14:38:18.980Z,59.36
2024-02-19T14:39:49.767Z,59.20
2024-02-19T14:41:17.651Z,58.67
2024-02-19T14:42:41.547Z,58.54
2024-02-19T14:44:07.409Z,58.90
2024-02-19T14:45:33.479Z,58.69
2024-02-19T14:47:02.315Z,58.25
2024-02-19T14:48:29.332Z,57.81
2024-02-19T14:49:52.655Z,58.59
2024-02-19T14:51:23.390Z,58.14
2024-02-19T14:52:47.536Z,58.28
2024-02-19T14:54:12.640Z,57.85
2024-02-19T14:55:36.562Z,57.80
2024-02-19T14:57:01.975Z,57.41
2024-02-19T14:58:30.446Z,57.60
2024-02-19T15:00:05.139Z,57.90
2024-02-19T15:01:39.900Z,58.39
2024-02-19T15:03:03.030Z,58.62
2024-02-19T15:04:57.170Z,57.86
2024-02-19T15:06:20.215Z,58.52
2024-02-19T15:07:46.639Z,58.50
2024-02-19T15:09:25.025Z,58.36
2024-02-19T15:10:54.500Z,57.48
2024-02-19T15:12:19.926Z,58.38
2024-02-19T15:14:08.918Z,58.33
2024-02-19T15:15:47.221Z,57.73
2024-02-19T15:17:18.976Z,58.09
2024-02-19T15:18:42.081Z,58.38
2024-02-19T15:20:05.359Z,58.41
2024-02-19T15:21:28.167Z,57.56
2024-02-19T15:23:15.053Z,58.59
2024-02-19T15:24:39.780Z,58.35
2024-02-19T15:26:24.162Z,57.88
2024-02-19T15:27:56.352Z,57.50
2024-02-19T15:29:21.997Z,57.81
2024-02-19T15:31:04.648Z,58.13
2024-02-19T15:32:28.575Z,58.58
2024-02-19T15:34:36.888Z,58.66
2024-02-19T15:38:05.902Z,58.58
2024-02-19T15:39:26.318Z,57.79
2024-02-19T15:40:53.725Z,58.81
2024-02-19T15:42:18.970Z,58.77
2024-02-19T15:43:43.028Z,58.68
2024-02-19T15:45:14.937Z,58.55
2024-02-19T15:46:41.518Z,58.45
2024-02-19T15:48:02.320Z,59.50
2024-02-19T15:49:26.430Z,59.84
2024-02-19T15:50:55.534Z,59.13
2024-02-19T15:52:19.662Z,59.90
2024-02-19T15:53:47.789Z,59.99
2024-02-19T15:55:22.954Z,59.45
2024-02-19T15:56:46.690Z,59.52
2024-02-19T15:58:10.316Z,59.79
2024-02-19T15:59:32.563Z,60.77
2024-02-19T16:00:55.219Z,60.59
2024-02-19T16:02:20.073Z,60.68
2024-02-19T16:03:43.611Z,61.08
2024-02-19T16:05:08.429Z,60.71
2024-02-19T16:06:33.298Z,61.80
2024-02-19T16:07:59.341Z,61.03
2024-02-19T16:09:24.339Z,61.24
2024-02-19T16:11:10.806Z,61.62
2024-02-19T16:12:37.766Z,62.21
2024-02-19T16:14:01.753Z,61.77
2024-02-19T16:15:28.185Z,62.14
2024-02-19T16:17:06.768Z,61.47
2024-02-19T16:18:27.835Z,62.31
2024-02-19T16:19:55.186Z,61.70
2024-02-19T16:21:18.278Z,61.62
2024-02-19T16:22:58.968Z,62.17
2024-02-19T16:24:29.992Z,62.52
2024-02-19T16:27:58.741Z,63.29
2024-02-19T16:29:28.246Z,63.72
2024-02-19T16:30:56.995Z,64.40
2024-02-19T16:32:23.006Z,64.68
2024-02-19T16:34:48.992Z,64.16
2024-02-19T16:36:26.353Z,64.03
2024-02-19T16:37:50.278Z,64.33
2024-02-19T16:39:13.589Z,64.69
2024-02-19T16:40:39.396Z,65.10
2024-02-19T16:42:06.372Z,65.68
2024-02-19T16:43:29.006Z,65.78
2024-02-19T16:44:50.889Z,65.41
2024-02-19T16:46:14.791Z,66.25
2024-02-19T16:47:37.705Z,66.83
2024-02-19T16:48:59.971Z,67.33
2024-02-19T16:50:23.668Z,66.25
2024-02-19T16:51:46.036Z,66.87
2024-02-19T16:53:09.063Z,66.95
2024-02-19T16:54:31.626Z,68.09
2024-02-19T16:55:54.442Z,67.51
2024-02-19T16:57:16.926Z,66.82
2024-02-19T16:58:38.692Z,67.33
2024-02-19T17:00:00.845Z,68.13
2024-02-19T17:01:23.723Z,68.26
2024-02-19T17:02:46.544Z,68.81
2024-02-19T17:04:10.098Z,68.62
2024-02-19T17:05:33.859Z,69.27
2024-02-19T17:06:56.736Z,69.99
2024-02-19T17:08:19.394Z,69.84
2024-02-19T17:09:43.792Z,71.04
2024-02-19T17:11:06.013Z,71.07
2024-02-19T17:12:31.913Z,71.79
2024-02-19T17:13:55.210Z,72.14
2024-02-19T17:15:17.480Z,72.02
2024-02-19T17:16:40.056Z,71.93
2024-02-19T17:18:04.241Z,72.58
2024-02-19T17:19:28.516Z,72.57
2024-02-19T17:20:51.012Z,73.48
2024-02-19T17:22:15.115Z,73.13
2024-02-19T17:23:38.309Z,73.30
2024-02-19T17:25:00.812Z,73.14
2024-02-19T17:26:23.811Z,74.46
2024-02-19T17:27:46.829Z,74.69
2024-02-19T17:29:09.853Z,74.26
2024-02-19T17:30:31.846Z,74.69
2024-02-19T17:31:54.383Z,75.02
2024-02-19T17:33:17.169Z,75.59
2024-02-19T17:34:44.199Z,75.42
2024-02-19T17:36:06.990Z,76.13
2024-02-19T17:37:31.032Z,75.44
2024-02-19T17:38:54.378Z,75.60
2024-02-19T17:40:16.924Z,75.41
2024-02-19T17:41:38.396Z,75.06
2024-02-19T17:43:01.277Z,75.94
2024-02-19T17:44:26.176Z,76.02
2024-02-19T17:45:49.790Z,75.16
2024-02-19T17:47:10.776Z,76.24
2024-02-19T17:48:31.576Z,76.27
2024-02-19T17:49:56.244Z,76.24
2024-02-19T17:51:23.616Z,76.95
2024-02-19T17:52:48.114Z,75.69
2024-02-19T17:54:12.321Z,77.11
2024-02-19T17:55:57.824Z,77.41
2024-02-19T17:57:21.717Z,77.94
2024-02-19T17:58:57.417Z,77.58
2024-02-19T18:00:20.490Z,78.05
2024-02-19T18:01:45.638Z,78.73
2024-02-19T18:03:07.319Z,79.29
2024-02-19T18:04:28.885Z,78.56
2024-02-19T18:05:51.957Z,78.25
2024-02-19T18:07:13.304Z,78.83
2024-02-19T18:08:38.515Z,79.28
2024-02-19T18:10:05.919Z,79.15
2024-02-19T18:11:33.961Z,79.12
2024-02-19T18:12:56.485Z,79.70
2024-02-19T18:14:19.116Z,79.67
2024-02-19T18:15:42.054Z,80.14
2024-02-19T18:17:03.281Z,80.12
2024-02-19T18:18:26.150Z,80.07
2024-02-19T18:19:49.585Z,80.61
2024-02-19T18:21:12.080Z,80.19
2024-02-19T18:22:35.417Z,80.17
2024-02-19T18:23:59.628Z,80.47
2024-02-19T18:25:21.817Z,80.09
2024-02-19T18:26:43.443Z,80.69
2024-02-19T18:28:07.184Z,80.88
2024-02-19T18:29:35.393Z,80.76
2024-02-19T18:30:58.247Z,80.99
2024-02-19T18:32:22.133Z,80.90
2024-02-19T18:33:45.656Z,80.55
2024-02-19T18:35:09.097Z,80.37
2024-02-19T18:36:31.241Z,80.91
2024-02-19T18:37:55.268Z,81.09
2024-02-19T18:39:16.720Z,80.98
2024-02-19T18:40:40.288Z,80.69
2024-02-19T18:42:02.690Z,81.42
2024-02-19T18:43:27.209Z,80.64
2024-02-19T18:44:51.131Z,80.70
2024-02-19T18:46:12.879Z,81.05
2024-02-19T18:47:36.084Z,81.08
2024-02-19T18:48:59.940Z,81.15
2024-02-19T18:50:23.075Z,81.25
2024-02-19T18:51:48.046Z,81.20
2024-02-19T18:53:10.886Z,81.07
2024-02-19T18:54:38.103Z,80.82
2024-02-19T18:56:02.947Z,80.76
2024-02-19T18:57:26.334Z,81.37
2024-02-19T18:58:51.453Z,81.18
2024-02-19T19:00:18.414Z,81.64
2024-02-19T19:01:41.129Z,80.89
2024-02-19T19:03:04.217Z,81.63
2024-02-19T19:04:27.016Z,81.59
2024-02-19T19:05:49.605Z,81.52
2024-02-19T19:07:11.887Z,82.09
2024-02-19T19:08:34.729Z,81.54
2024-02-19T19:09:59.743Z,80.96
2024-02-19T19:11:23.938Z,81.50
2024-02-19T19:12:47.716Z,81.94
2024-02-19T19:14:12.734Z,81.80
2024-02-19T19:15:43.333Z,81.80
2024-02-19T19:17:12.348Z,81.74
2024-02-19T19:18:35.599Z,81.75
2024-02-19T19:19:57.692Z,81.91
2024-02-19T19:21:23.369Z,81.91
2024-02-19T19:22:49.338Z,81.90
2024-02-19T19:24:11.254Z,81.80
2024-02-19T19:25:34.387Z,82.22
2024-02-19T19:26:56.895Z,82.30
2024-02-19T19:28:19.764Z,81.82
2024-02-19T19:29:42.553Z,82.45
2024-02-19T19:31:06.505Z,81.50
2024-02-19T19:32:30.842Z,82.07
2024-02-19T19:33:54.714Z,81.50
2024-02-19T19:35:18.504Z,82.14
2024-02-19T19:36:46.458Z,81.86
2024-02-19T19:38:08.266Z,82.45
2024-02-19T19:39:29.397Z,81.38
2024-02-19T19:40:51.806Z,82.09
2024-02-19T19:42:15.296Z,81.86
2024-02-19T19:43:41.147Z,81.73
2024-02-19T19:45:05.360Z,82.67
2024-02-19T19:46:30.643Z,81.94
2024-02-19T19:47:54.516Z,81.94
2024-02-19T19:49:21.798Z,81.57
2024-02-19T19:50:44.163Z,81.17
2024-02-19T19:52:10.061Z,81.30